Time;durP1;ratioP1;P1;durP2;ratioP2;P2;SDS_P1;SDS_P2;PMS_P1;PMS_P2;Temp;Humidity;BMP_temperature;BMP_pressure;BME280_temperature;BME280_humidity;BME280_pressure;Samples;Min_cycle;Max_cycle;Signal;HPM_P1;HPM_P2
2022/12/25 00:01:16;;;;;;;191.07;43.17;;;4.70;99.90;;;;;;5054938;28;20051;-27
2022/12/25 00:03:42;;;;;;;199.02;46.10;;;4.60;99.90;;;;;;5055499;28;20053;-27
2022/12/25 00:06:07;;;;;;;183.15;40.22;;;4.80;99.90;;;;;;5054846;28;20053;-27
2022/12/25 00:08:34;;;;;;;219.55;44.85;;;4.70;99.90;;;;;;5036897;28;20469;-27
2022/12/25 00:11:06;;;;;;;168.93;38.20;;;4.80;99.90;;;;;;5037028;28;20080;-27
2022/12/25 00:13:32;;;;;;;157.80;37.20;;;4.80;99.90;;;;;;5055006;28;20045;-27
2022/12/25 00:15:58;;;;;;;137.32;36.92;;;4.60;99.90;;;;;;5054949;28;20049;-27
2022/12/25 00:18:24;;;;;;;209.10;41.20;;;4.80;99.90;;;;;;5055142;28;20418;-27
2022/12/25 00:21:02;;;;;;;132.07;35.67;;;4.90;99.90;;;;;;5054251;28;20622;-27
2022/12/25 00:23:28;;;;;;;151.75;38.38;;;4.80;99.90;;;;;;5055111;28;20056;-28
2022/12/25 00:25:54;;;;;;;155.77;37.33;;;5.10;99.90;;;;;;5054676;28;20387;-27
2022/12/25 00:28:21;;;;;;;192.25;41.65;;;5.10;99.90;;;;;;5054288;28;20044;-28
2022/12/25 00:30:47;;;;;;;146.25;37.20;;;4.90;99.90;;;;;;5054391;28;20045;-28
2022/12/25 00:33:13;;;;;;;159.60;39.38;;;5.00;99.90;;;;;;5054995;28;20107;-28
2022/12/25 00:35:39;;;;;;;144.98;34.05;;;5.10;99.90;;;;;;5036144;28;20056;-28
2022/12/25 00:38:05;;;;;;;136.00;35.88;;;5.00;99.90;;;;;;5054184;28;20053;-27
2022/12/25 00:40:31;;;;;;;168.82;38.95;;;5.10;99.90;;;;;;5054240;28;20059;-28
2022/12/25 00:42:56;;;;;;;134.25;33.58;;;5.00;99.90;;;;;;5054952;28;20041;-28
2022/12/25 00:45:22;;;;;;;138.82;38.58;;;5.00;99.90;;;;;;5054674;28;20490;-28
2022/12/25 00:47:47;;;;;;;169.88;40.53;;;5.10;99.90;;;;;;5054030;28;20071;-28
2022/12/25 00:50:13;;;;;;;205.90;43.35;;;5.20;99.90;;;;;;5053697;28;20049;-28
2022/12/25 00:52:39;;;;;;;153.35;37.83;;;5.20;99.90;;;;;;5053717;28;20128;-28
2022/12/25 00:55:05;;;;;;;182.15;38.83;;;4.90;99.90;;;;;;5036223;28;20049;-28
2022/12/25 00:57:32;;;;;;;203.90;44.28;;;4.90;99.90;;;;;;5054759;28;20124;-28
2022/12/25 00:59:58;;;;;;;254.07;48.10;;;5.00;99.90;;;;;;5054477;28;20094;-28
2022/12/25 01:02:24;;;;;;;229.93;45.30;;;5.30;99.90;;;;;;5053832;28;20049;-28
2022/12/25 01:04:55;;;;;;;277.73;49.45;;;5.20;99.90;;;;;;5053825;28;20080;-29
2022/12/25 01:07:23;;;;;;;295.25;53.83;;;5.30;99.90;;;;;;5053765;28;20098;-29
2022/12/25 01:12:36;;;;;;;350.63;58.60;;;5.60;99.90;;;;;;5053719;28;20102;-28
2022/12/25 01:15:04;;;;;;;316.75;56.58;;;5.70;99.90;;;;;;5035804;28;20080;-28
2022/12/25 01:17:30;;;;;;;306.52;54.45;;;5.90;99.90;;;;;;5054247;28;20041;-28
2022/12/25 01:19:56;;;;;;;316.38;53.65;;;5.80;99.90;;;;;;5053457;28;20391;-29
2022/12/25 01:22:21;;;;;;;306.45;54.00;;;6.10;99.90;;;;;;5053555;28;20056;-29
2022/12/25 01:24:47;;;;;;;260.02;53.20;;;6.10;99.90;;;;;;5053522;28;20044;-29
2022/12/25 01:27:13;;;;;;;299.70;55.47;;;6.20;99.90;;;;;;5054006;28;20052;-29
2022/12/25 01:29:39;;;;;;;314.17;57.53;;;6.10;99.90;;;;;;5053153;28;20132;-28
2022/12/25 01:32:05;;;;;;;330.77;58.35;;;6.30;99.90;;;;;;5020355;28;20087;-29
2022/12/25 01:34:30;;;;;;;255.73;54.03;;;6.10;99.90;;;;;;5019496;28;20048;-29
2022/12/25 01:36:56;;;;;;;226.23;52.72;;;6.40;99.90;;;;;;5053836;28;20045;-29
2022/12/25 01:39:22;;;;;;;248.38;54.72;;;6.20;99.90;;;;;;5053612;28;20586;-29
2022/12/25 01:41:47;;;;;;;263.95;54.72;;;6.30;99.90;;;;;;5053700;28;20140;-29
2022/12/25 01:44:13;;;;;;;247.82;53.97;;;6.50;99.90;;;;;;5053372;28;20053;-28
2022/12/25 01:46:39;;;;;;;289.92;58.03;;;6.20;99.90;;;;;;5053310;28;20479;-29
2022/12/25 01:49:21;;;;;;;306.98;58.05;;;6.20;99.90;;;;;;5019329;28;20395;-28
2022/12/25 01:52:11;;;;;;;284.77;53.53;;;6.40;99.90;;;;;;5054140;28;20045;-28
2022/12/25 01:55:07;;;;;;;257.58;53.33;;;6.40;99.90;;;;;;5054172;28;20047;-29
2022/12/25 01:57:36;;;;;;;218.50;48.35;;;6.20;99.90;;;;;;5053295;28;20134;-28
2022/12/25 02:00:04;;;;;;;236.65;50.97;;;6.40;99.90;;;;;;5053763;28;20048;-29
2022/12/25 02:02:31;;;;;;;180.90;44.10;;;6.40;99.90;;;;;;5035670;28;20106;-28
2022/12/25 02:05:01;;;;;;;191.38;47.00;;;6.20;99.90;;;;;;5019018;28;20430;-28
2022/12/25 02:07:31;;;;;;;205.65;48.38;;;6.10;99.90;;;;;;5053952;28;20110;-29
2022/12/25 02:09:57;;;;;;;171.25;44.08;;;6.30;99.90;;;;;;5053135;28;20098;-28
2022/12/25 02:12:28;;;;;;;183.55;44.80;;;6.40;99.90;;;;;;5053057;28;20053;-28
2022/12/25 02:14:58;;;;;;;170.73;48.20;;;6.50;99.90;;;;;;5053461;28;20503;-28
2022/12/25 02:17:41;;;;;;;174.43;46.53;;;6.30;99.90;;;;;;5035542;28;20048;-28
2022/12/25 02:20:39;;;;;;;189.02;47.05;;;6.40;99.90;;;;;;5053102;28;20053;-28
2022/12/25 02:23:35;;;;;;;156.52;48.28;;;6.50;99.90;;;;;;5035219;28;20049;-28
2022/12/25 02:26:19;;;;;;;169.05;46.58;;;6.70;99.90;;;;;;5053831;28;20074;-28
2022/12/25 02:29:03;;;;;;;180.52;53.80;;;6.60;99.90;;;;;;5052976;28;20384;-29
2022/12/25 02:31:39;;;;;;;179.30;49.08;;;6.70;99.90;;;;;;5056362;28;20130;-28
2022/12/25 02:34:14;;;;;;;153.10;45.72;;;6.80;99.90;;;;;;5056763;28;20096;-28
2022/12/25 02:36:44;;;;;;;187.68;52.40;;;6.70;99.90;;;;;;5056388;28;20119;-28
2022/12/25 03:08:38;;;;;;;142.45;46.80;;;7.00;99.90;;;;;;4994309;28;20050;-29
2022/12/25 03:16:49;;;;;;;140.95;50.65;;;7.10;99.90;;;;;;5034697;28;20045;-28
2022/12/25 03:16:49;;;;;;;137.73;49.58;;;7.20;99.90;;;;;;5056629;28;20048;-30
2022/12/25 03:27:42;;;;;;;141.27;47.80;;;7.40;99.90;;;;;;5055546;28;20045;-31
2022/12/25 03:33:10;;;;;;;115.72;46.13;;;7.50;99.90;;;;;;5056369;28;20088;-31
2022/12/25 03:35:44;;;;;;;125.63;48.20;;;7.40;99.90;;;;;;5055452;28;20140;-31
2022/12/25 04:37:13;;;;;;;143.43;53.35;;;8.00;99.90;;;;;;5054403;28;20403;-31
2022/12/25 04:39:39;;;;;;;141.70;48.53;;;7.70;99.90;;;;;;5037231;28;20057;-31
2022/12/25 04:42:05;;;;;;;161.25;50.72;;;7.90;99.90;;;;;;5054247;28;20049;-30
2022/12/25 04:44:31;;;;;;;153.90;52.20;;;7.60;99.90;;;;;;5054434;28;20064;-30
2022/12/25 04:46:56;;;;;;;146.65;46.25;;;7.80;99.90;;;;;;5019535;28;20098;-30
2022/12/25 04:49:22;;;;;;;148.48;53.83;;;7.90;99.90;;;;;;5054381;28;20049;-30
2022/12/25 04:51:48;;;;;;;173.57;51.20;;;7.80;99.90;;;;;;5037003;28;20060;-28
2022/12/25 04:54:13;;;;;;;163.23;52.38;;;7.80;99.90;;;;;;5053655;28;20045;-29
2022/12/25 04:56:39;;;;;;;167.88;51.10;;;7.80;99.90;;;;;;5053965;28;20044;-28
2022/12/25 04:59:05;;;;;;;169.32;51.30;;;7.80;99.90;;;;;;5053955;28;20041;-29
2022/12/25 05:01:31;;;;;;;185.10;52.03;;;7.90;99.90;;;;;;5053856;28;20526;-28
2022/12/25 05:03:57;;;;;;;164.20;49.42;;;7.80;99.90;;;;;;5019922;28;20041;-28
2022/12/25 05:06:22;;;;;;;168.35;51.30;;;7.70;99.90;;;;;;5036256;28;20084;-28
2022/12/25 05:08:48;;;;;;;154.02;47.92;;;7.80;99.90;;;;;;5053386;28;20118;-28
2022/12/25 05:11:15;;;;;;;166.27;49.63;;;7.80;99.90;;;;;;5054574;28;20044;-28
2022/12/25 05:13:41;;;;;;;164.05;49.33;;;7.90;99.90;;;;;;5035928;28;20044;-28
2022/12/25 05:16:12;;;;;;;157.80;49.03;;;7.80;99.90;;;;;;5036040;28;20086;-28
2022/12/25 05:18:38;;;;;;;157.07;46.65;;;7.80;99.90;;;;;;5053403;28;20097;-28
2022/12/25 05:21:04;;;;;;;132.63;48.60;;;7.80;99.90;;;;;;5036056;28;20124;-28
2022/12/25 05:23:30;;;;;;;158.27;46.55;;;7.90;99.90;;;;;;5035965;28;20052;-28
2022/12/25 05:25:56;;;;;;;133.45;47.63;;;8.00;99.90;;;;;;5035999;28;20044;-28
2022/12/25 05:28:22;;;;;;;136.85;42.60;;;7.90;99.90;;;;;;5036418;28;20437;-28
2022/12/25 05:30:48;;;;;;;138.32;47.72;;;7.90;99.90;;;;;;5035648;28;20048;-28
2022/12/25 05:33:13;;;;;;;132.30;47.20;;;8.10;99.90;;;;;;5053366;28;20120;-29
2022/12/25 05:35:40;;;;;;;149.27;45.10;;;8.10;99.90;;;;;;5053292;28;20056;-28
2022/12/25 05:38:06;;;;;;;139.63;49.55;;;8.00;99.90;;;;;;5053438;28;20053;-28
2022/12/25 05:40:33;;;;;;;140.25;48.95;;;8.00;99.90;;;;;;5053445;28;20446;-29
2022/12/25 05:42:59;;;;;;;128.38;46.78;;;8.00;99.90;;;;;;5036650;28;20093;-28
2022/12/25 05:45:24;;;;;;;150.50;47.05;;;8.20;99.90;;;;;;5053423;28;20057;-28
2022/12/25 05:47:51;;;;;;;142.77;49.58;;;8.00;99.90;;;;;;5019118;28;20391;-28
2022/12/25 05:50:17;;;;;;;139.23;48.85;;;8.00;99.90;;;;;;5036048;28;20049;-28
2022/12/25 05:52:43;;;;;;;146.85;50.35;;;8.20;99.90;;;;;;5035991;28;20118;-29
2022/12/25 05:55:09;;;;;;;140.57;46.95;;;8.10;99.90;;;;;;5035445;28;20399;-29
2022/12/25 05:57:35;;;;;;;150.20;51.05;;;;;;;;;;5035742;28;20052;-29
2022/12/25 06:00:01;;;;;;;145.07;51.42;;;8.20;99.90;;;;;;5053486;28;20045;-28
2022/12/25 06:02:27;;;;;;;154.98;46.83;;;8.00;99.90;;;;;;5053737;28;20479;-28
2022/12/25 06:04:52;;;;;;;149.18;48.10;;;8.20;99.90;;;;;;5035567;28;20057;-28
2022/12/25 06:07:18;;;;;;;157.13;47.20;;;8.00;99.90;;;;;;5057092;28;20048;-28
2022/12/25 06:09:44;;;;;;;138.63;51.38;;;8.20;99.90;;;;;;5039229;28;20050;-28
2022/12/25 06:12:09;;;;;;;159.55;49.95;;;8.00;99.90;;;;;;5039267;28;20055;-28
2022/12/25 06:14:35;;;;;;;158.57;50.08;;;8.00;99.90;;;;;;5056985;28;20052;-28
2022/12/25 06:17:01;;;;;;;146.95;50.85;;;8.10;99.90;;;;;;5057051;28;20049;-28
2022/12/25 06:19:27;;;;;;;139.50;47.13;;;8.20;99.90;;;;;;5056919;28;20504;-28
2022/12/25 06:21:53;;;;;;;167.60;53.75;;;8.20;99.90;;;;;;5056941;28;20521;-28
2022/12/25 06:24:20;;;;;;;164.40;49.38;;;8.10;99.90;;;;;;5056874;28;20075;-28
2022/12/25 06:26:46;;;;;;;170.65;51.40;;;8.20;99.90;;;;;;5039168;28;20040;-28
2022/12/25 06:29:11;;;;;;;172.50;56.60;;;8.10;99.90;;;;;;5057038;28;20056;-28
2022/12/25 06:31:37;;;;;;;158.63;54.17;;;8.10;99.90;;;;;;5056398;28;20045;-29
2022/12/25 06:34:03;;;;;;;158.65;53.10;;;8.20;99.90;;;;;;5038787;28;20056;-28
2022/12/25 06:36:29;;;;;;;172.32;53.72;;;8.20;99.90;;;;;;5056448;28;20453;-28
2022/12/25 06:38:55;;;;;;;171.27;53.35;;;8.20;99.90;;;;;;5056575;28;20531;-28
2022/12/25 06:41:23;;;;;;;169.70;51.72;;;8.30;99.90;;;;;;5057072;28;20179;-28
2022/12/25 06:43:50;;;;;;;170.75;51.65;;;8.20;99.90;;;;;;5038396;28;20560;-28
2022/12/25 06:46:17;;;;;;;163.98;50.78;;;8.20;99.90;;;;;;5056390;28;20056;-28
2022/12/25 06:48:49;;;;;;;157.50;51.20;;;8.30;99.90;;;;;;5038812;28;20037;-28
2022/12/25 06:51:20;;;;;;;171.07;51.35;;;8.20;99.90;;;;;;5056390;28;20131;-28
2022/12/25 06:53:47;;;;;;;154.52;51.17;;;8.20;99.90;;;;;;5038752;28;20471;-28
2022/12/25 06:56:14;;;;;;;172.30;51.83;;;8.30;99.90;;;;;;5056309;28;20045;-28
2022/12/25 06:58:46;;;;;;;155.73;46.58;;;8.10;99.90;;;;;;5056204;28;20048;-28
2022/12/25 07:01:21;;;;;;;164.63;50.00;;;8.20;99.90;;;;;;5056148;28;20044;-27
2022/12/25 07:03:50;;;;;;;137.80;45.50;;;8.30;99.90;;;;;;5056055;28;20045;-28
2022/12/25 07:06:16;;;;;;;148.63;43.75;;;8.20;99.90;;;;;;5039011;28;20170;-27
2022/12/25 07:08:41;;;;;;;170.63;48.17;;;8.20;99.90;;;;;;5055938;28;20123;-27
2022/12/25 07:11:07;;;;;;;147.50;44.08;;;8.10;99.90;;;;;;5055947;28;20517;-27
2022/12/25 07:13:33;;;;;;;166.60;46.35;;;8.30;99.90;;;;;;5055877;28;20099;-26
2022/12/25 07:16:01;;;;;;;163.50;45.25;;;8.20;99.90;;;;;;5021545;28;20099;-27
2022/12/25 07:18:28;;;;;;;166.98;46.17;;;8.20;99.90;;;;;;5055805;28;20553;-27
2022/12/25 07:20:54;;;;;;;173.15;43.13;;;8.20;99.90;;;;;;5056899;28;20049;-27
2022/12/25 07:23:21;;;;;;;159.95;44.10;;;8.10;99.90;;;;;;5055740;28;20044;-27
2022/12/25 07:25:55;;;;;;;183.27;46.85;;;8.20;99.90;;;;;;5056214;28;20049;-27
2022/12/25 07:28:20;;;;;;;;;;;8.10;99.90;;;;;;5056555;28;20041;-27
2022/12/25 07:30:46;;;;;;;149.90;41.33;;;8.20;99.90;;;;;;5055539;28;19927;-27
2022/12/25 07:33:12;;;;;;;158.35;43.13;;;8.00;99.90;;;;;;5037999;28;20136;-27
2022/12/25 07:35:37;;;;;;;158.18;42.17;;;8.00;99.90;;;;;;5055172;28;20049;-27
2022/12/25 07:38:03;;;;;;;138.15;42.85;;;8.10;99.90;;;;;;5055416;28;20170;-27
2022/12/25 07:40:29;;;;;;;139.52;41.90;;;8.00;99.90;;;;;;5056014;28;20037;-27
2022/12/25 07:42:54;;;;;;;128.18;41.05;;;8.20;99.90;;;;;;5055317;28;20509;-27
2022/12/25 07:45:20;;;;;;;122.90;39.33;;;8.20;99.90;;;;;;5037661;28;20056;-27
2022/12/25 07:47:46;;;;;;;131.35;41.00;;;8.10;99.90;;;;;;5055458;28;20045;-27
2022/12/25 07:50:11;;;;;;;122.30;39.55;;;8.10;99.90;;;;;;5055360;28;20490;-27
2022/12/25 07:52:37;;;;;;;142.07;40.58;;;8.20;99.90;;;;;;5055385;28;20056;-28
2022/12/25 07:55:04;;;;;;;109.13;34.35;;;8.10;99.90;;;;;;5055574;28;20531;-27
2022/12/25 07:57:29;;;;;;;125.50;38.90;;;8.10;99.90;;;;;;5055044;28;20434;-27
2022/12/25 07:59:55;;;;;;;120.30;38.55;;;8.20;99.90;;;;;;5054640;28;20056;-27
2022/12/25 08:02:27;;;;;;;114.63;37.15;;;8.20;99.90;;;;;;5054933;28;20040;-27
2022/12/25 08:04:56;;;;;;;106.68;35.83;;;8.20;99.90;;;;;;5037394;28;20483;-27
2022/12/25 08:07:22;;;;;;;110.88;36.78;;;8.10;99.90;;;;;;5037327;28;20110;-27
2022/12/25 08:09:47;;;;;;;106.72;38.55;;;8.10;99.90;;;;;;5054895;28;20045;-27
2022/12/25 08:12:13;;;;;;;107.10;35.92;;;8.20;99.90;;;;;;5055558;28;20490;-27
2022/12/25 08:14:39;;;;;;;101.03;35.67;;;8.10;99.90;;;;;;5037964;28;20044;-27
2022/12/25 08:17:07;;;;;;;90.10;34.42;;;8.30;99.90;;;;;;5036967;28;20040;-27
2022/12/25 08:19:33;;;;;;;89.18;34.50;;;8.20;99.90;;;;;;5036889;28;20069;-27
2022/12/25 08:21:59;;;;;;;102.60;36.53;;;8.30;99.90;;;;;;5054584;28;20479;-27
2022/12/25 08:24:24;;;;;;;83.90;31.75;;;8.20;99.90;;;;;;5021303;28;20045;-27
2022/12/25 08:26:50;;;;;;;98.78;34.80;;;8.40;99.90;;;;;;5054703;28;20479;-28
2022/12/25 08:29:16;;;;;;;79.15;31.58;;;8.30;99.90;;;;;;5053730;28;20157;-26
2022/12/25 08:31:42;;;;;;;81.45;33.47;;;8.30;99.90;;;;;;5037570;28;20086;-27
2022/12/25 08:34:09;;;;;;;83.88;32.05;;;8.30;99.90;;;;;;5036681;28;20045;-27
2022/12/25 08:36:36;;;;;;;87.20;31.38;;;8.40;99.90;;;;;;5054517;28;20053;-27
2022/12/25 08:39:02;;;;;;;80.93;30.98;;;8.40;99.90;;;;;;5054256;28;20518;-27
2022/12/25 08:41:28;;;;;;;75.75;30.40;;;8.50;99.90;;;;;;5054221;28;20087;-27
2022/12/25 08:43:54;;;;;;;72.18;30.90;;;8.40;99.90;;;;;;5054145;28;20049;-27
2022/12/25 08:46:20;;;;;;;63.10;27.55;;;8.40;99.90;;;;;;5054391;28;20073;-27
2022/12/25 08:48:47;;;;;;;58.95;28.05;;;8.40;99.90;;;;;;5036216;28;20525;-27
2022/12/25 08:51:16;;;;;;;52.05;28.02;;;8.40;99.90;;;;;;5036294;28;20377;-27
2022/12/25 08:53:43;;;;;;;57.03;26.00;;;8.50;99.90;;;;;;5036256;28;20052;-27
2022/12/25 08:56:09;;;;;;;62.13;27.17;;;8.50;99.90;;;;;;5036229;28;20080;-28
2022/12/25 08:58:35;;;;;;;51.40;26.17;;;8.50;99.90;;;;;;5054205;28;20040;-27
2022/12/25 09:01:01;;;;;;;48.70;24.27;;;8.50;99.90;;;;;;5053845;28;20066;-27
2022/12/25 09:03:27;;;;;;;49.30;24.00;;;8.50;99.90;;;;;;5053878;28;20044;-27
2022/12/25 09:05:54;;;;;;;49.92;24.17;;;8.60;99.90;;;;;;5053844;28;20049;-27
2022/12/25 09:08:20;;;;;;;40.72;22.55;;;8.60;99.90;;;;;;5053784;28;20045;-27
2022/12/25 09:10:47;;;;;;;48.55;23.38;;;8.50;99.90;;;;;;5053962;28;20128;-27
2022/12/25 09:13:13;;;;;;;45.75;23.25;;;8.60;99.90;;;;;;5036938;28;20099;-27
2022/12/25 09:15:39;;;;;;;44.60;21.25;;;8.60;99.90;;;;;;5053668;28;20048;-27
2022/12/25 09:18:05;;;;;;;47.25;21.85;;;8.60;99.90;;;;;;5054077;28;20375;-27
2022/12/25 09:20:31;;;;;;;42.30;22.30;;;8.60;99.90;;;;;;5019480;28;20509;-27
2022/12/25 09:22:57;;;;;;;36.22;19.63;;;8.60;99.90;;;;;;5053542;28;20045;-27
2022/12/25 09:25:23;;;;;;;38.40;20.23;;;8.60;99.90;;;;;;5053573;28;20135;-27
2022/12/25 09:27:48;;;;;;;41.03;19.83;;;8.60;99.90;;;;;;5053424;28;20123;-27
2022/12/25 09:30:14;;;;;;;31.77;17.38;;;8.60;99.90;;;;;;5035969;28;20480;-27
2022/12/25 09:32:40;;;;;;;39.47;18.60;;;8.60;99.90;;;;;;5035750;28;20474;-27
2022/12/25 09:35:07;;;;;;;34.20;18.33;;;8.60;99.90;;;;;;5053154;28;20127;-27
2022/12/25 09:37:33;;;;;;;43.97;16.60;;;8.60;99.90;;;;;;5002971;28;20045;-27
2022/12/25 09:39:58;;;;;;;37.83;16.88;;;8.60;99.90;;;;;;5037654;28;20491;-27
2022/12/25 09:42:30;;;;;;;36.35;16.23;;;8.60;99.90;;;;;;5057574;28;20047;-26
2022/12/25 09:45:00;;;;;;;31.23;17.35;;;8.60;99.90;;;;;;5058155;28;20124;-27
2022/12/25 09:47:29;;;;;;;26.95;16.15;;;8.70;99.90;;;;;;5058390;28;20081;-27
2022/12/25 09:50:02;;;;;;;33.08;16.42;;;8.70;99.90;;;;;;5057433;28;20049;-27
2022/12/25 09:52:38;;;;;;;32.28;16.23;;;8.70;99.90;;;;;;5040072;28;20060;-27
2022/12/25 09:55:12;;;;;;;26.17;15.00;;;8.80;99.90;;;;;;5055529;28;20399;-27
2022/12/25 09:57:38;;;;;;;29.42;14.80;;;8.80;99.90;;;;;;5056691;28;20510;-27
2022/12/25 10:00:14;;;;;;;23.42;15.02;;;8.70;99.90;;;;;;5057571;28;20441;-27
2022/12/25 10:02:52;;;;;;;34.08;16.95;;;8.70;99.90;;;;;;5039907;28;20072;-27
2022/12/25 10:05:24;;;;;;;29.77;15.68;;;8.70;99.90;;;;;;5057796;28;20045;-27
2022/12/25 10:07:58;;;;;;;25.10;15.27;;;8.70;99.90;;;;;;5057055;28;20048;-27
2022/12/25 10:10:38;;;;;;;29.33;15.38;;;8.70;99.90;;;;;;5057094;28;20079;-27
2022/12/25 10:13:25;;;;;;;23.20;14.95;;;8.70;99.90;;;;;;5057051;28;20132;-27
2022/12/25 10:16:10;;;;;;;28.98;15.20;;;8.70;99.90;;;;;;5056910;28;20041;-27
2022/12/25 10:18:58;;;;;;;31.67;15.70;;;8.70;99.90;;;;;;5056960;28;20072;-27
2022/12/25 10:21:26;;;;;;;23.13;13.57;;;8.70;99.90;;;;;;5057185;28;20133;-27
2022/12/25 10:24:09;;;;;;;25.92;14.02;;;8.60;99.90;;;;;;5039168;28;20049;-26
2022/12/25 10:26:34;;;;;;;33.25;14.30;;;8.70;99.90;;;;;;5056729;28;20132;-27
2022/12/25 10:29:11;;;;;;;31.88;13.93;;;8.70;99.90;;;;;;5038709;28;20131;-28
2022/12/25 10:31:37;;;;;;;22.25;14.00;;;8.70;99.90;;;;;;5056665;28;20049;-27
2022/12/25 10:34:05;;;;;;;25.00;14.38;;;8.70;99.90;;;;;;5056114;28;20099;-27
2022/12/25 10:36:32;;;;;;;23.58;13.48;;;8.70;99.90;;;;;;5056857;28;20057;-27
2022/12/25 10:38:58;;;;;;;26.10;14.43;;;8.70;99.90;;;;;;5056365;28;20049;-26
2022/12/25 10:42:04;;;;;;;20.75;12.30;;;8.70;99.90;;;;;;5056946;28;20120;-27
2022/12/25 10:44:29;;;;;;;22.10;13.82;;;8.70;99.90;;;;;;5056628;28;20466;-27
2022/12/25 10:46:57;;;;;;;21.42;13.20;;;8.80;99.90;;;;;;5056280;28;20081;-27
2022/12/25 10:49:28;;;;;;;22.95;12.23;;;8.70;99.90;;;;;;5056297;28;20045;-27
2022/12/25 10:51:54;;;;;;;19.58;11.63;;;8.80;99.90;;;;;;5056538;28;20053;-27
2022/12/25 10:54:30;;;;;;;19.65;11.88;;;8.80;99.90;;;;;;5022611;28;20438;-27
2022/12/25 10:56:58;;;;;;;28.95;13.50;;;8.80;99.90;;;;;;5056437;28;20103;-27
2022/12/25 10:59:29;;;;;;;19.55;12.10;;;8.80;99.90;;;;;;5056226;28;20056;-27
2022/12/25 11:01:55;;;;;;;21.63;12.70;;;8.80;99.90;;;;;;5039206;28;20037;-26
2022/12/25 11:04:27;;;;;;;25.95;13.15;;;8.80;99.90;;;;;;5056137;28;20098;-27
2022/12/25 11:07:23;;;;;;;27.70;14.35;;;8.80;99.90;;;;;;5056032;28;20053;-27
2022/12/25 11:09:52;;;;;;;23.17;15.20;;;8.80;99.90;;;;;;5056045;28;20095;-27
2022/12/25 11:12:19;;;;;;;24.08;14.25;;;8.80;99.90;;;;;;5055923;28;20079;-26
2022/12/25 11:14:57;;;;;;;21.70;12.65;;;8.80;99.90;;;;;;5038367;28;20041;-26
2022/12/25 11:17:24;;;;;;;24.15;12.90;;;8.80;99.90;;;;;;5055862;28;20471;-26
2022/12/25 11:19:53;;;;;;;26.67;18.23;;;8.80;99.90;;;;;;5038251;28;20111;-26
2022/12/25 11:22:19;;;;;;;26.00;16.75;;;8.90;99.90;;;;;;5038466;28;20048;-26
2022/12/25 11:24:44;;;;;;;26.20;13.93;;;8.90;99.90;;;;;;5005487;28;20387;-26
2022/12/25 11:27:27;;;;;;;24.48;15.65;;;8.90;99.90;;;;;;5038031;28;20052;-26
2022/12/25 11:30:03;;;;;;;26.75;15.13;;;8.90;99.90;;;;;;5037809;28;20045;-27
2022/12/25 11:32:36;;;;;;;28.33;16.13;;;8.90;99.90;;;;;;5055916;28;20056;-27
2022/12/25 11:35:02;;;;;;;27.83;15.75;;;8.90;99.90;;;;;;5038784;28;20106;-26
2022/12/25 11:37:37;;;;;;;28.90;16.73;;;9.00;99.90;;;;;;5055860;28;20053;-26
2022/12/25 11:40:04;;;;;;;27.15;14.52;;;8.90;99.90;;;;;;5056329;28;20045;-26
2022/12/25 11:42:33;;;;;;;32.75;21.00;;;8.90;99.90;;;;;;5037837;28;20529;-26
2022/12/25 11:45:11;;;;;;;34.72;19.10;;;8.90;99.90;;;;;;5055038;28;20471;-26
2022/12/25 11:48:01;;;;;;;29.60;16.05;;;8.90;99.90;;;;;;5037793;28;20148;-26
2022/12/25 11:50:33;;;;;;;25.67;14.57;;;8.90;99.90;;;;;;5022076;28;20144;-27
2022/12/25 11:53:05;;;;;;;51.20;31.50;;;8.90;99.90;;;;;;5055251;28;20127;-26
2022/12/25 11:55:44;;;;;;;21.48;13.23;;;8.90;99.90;;;;;;5037428;28;20475;-26
2022/12/25 11:58:25;;;;;;;18.33;11.32;;;8.90;99.90;;;;;;5055171;28;20041;-26
2022/12/25 12:00:56;;;;;;;23.38;13.77;;;8.90;99.90;;;;;;5055918;28;20049;-26
2022/12/25 12:03:36;;;;;;;22.67;13.40;;;8.90;99.90;;;;;;5054018;28;20132;-26
2022/12/25 12:06:06;;;;;;;21.95;14.05;;;8.90;99.90;;;;;;5054974;28;20053;-27
2022/12/25 12:08:34;;;;;;;24.08;14.98;;;8.90;99.90;;;;;;5054854;28;20080;-26
2022/12/25 12:11:14;;;;;;;21.00;13.18;;;8.90;99.90;;;;;;5055666;28;20045;-26
2022/12/25 12:13:43;;;;;;;28.90;15.43;;;8.90;99.90;;;;;;5021298;28;20103;-26
2022/12/25 12:16:09;;;;;;;20.98;12.52;;;9.00;99.90;;;;;;5054740;28;20053;-27
2022/12/25 12:18:35;;;;;;;18.77;10.68;;;9.00;99.90;;;;;;5054716;28;20133;-26
2022/12/25 12:21:24;;;;;;;17.92;11.95;;;8.90;99.90;;;;;;5054640;28;20044;-26
2022/12/25 12:23:59;;;;;;;24.23;12.23;;;9.00;99.90;;;;;;5055016;28;20131;-27
2022/12/25 12:26:33;;;;;;;21.70;13.57;;;9.00;99.90;;;;;;5054586;28;20059;-26
2022/12/25 12:29:00;;;;;;;20.98;11.57;;;8.90;99.90;;;;;;5055302;28;20114;-26
2022/12/25 12:31:39;;;;;;;19.25;10.25;;;8.90;99.90;;;;;;5054480;28;20049;-26
2022/12/25 12:34:14;;;;;;;18.92;10.70;;;8.90;99.90;;;;;;5054053;28;20487;-26
2022/12/25 12:36:39;;;;;;;54.22;27.88;;;8.90;99.90;;;;;;5036402;28;20495;-26
2022/12/25 12:39:05;;;;;;;25.25;19.17;;;8.90;99.90;;;;;;5036591;28;20103;-26
2022/12/25 12:41:57;;;;;;;24.30;18.92;;;9.00;99.90;;;;;;5055097;28;20041;-26
2022/12/25 12:44:29;;;;;;;17.55;9.35;;;9.00;99.90;;;;;;5015257;28;20106;-26
2022/12/25 12:46:56;;;;;;;19.77;9.07;;;9.00;99.90;;;;;;5054418;28;20049;-27
2022/12/25 12:49:26;;;;;;;16.98;8.60;;;9.00;99.90;;;;;;5054162;28;20448;-26
2022/12/25 12:52:21;;;;;;;18.17;9.25;;;9.00;99.90;;;;;;5036297;28;20549;-26
2022/12/25 12:55:00;;;;;;;14.30;8.30;;;9.00;99.90;;;;;;5054427;28;20045;-26
2022/12/25 12:57:31;;;;;;;20.83;9.55;;;9.00;99.90;;;;;;5036789;28;20056;-26
2022/12/25 12:59:58;;;;;;;15.50;9.00;;;9.00;99.90;;;;;;5054094;28;20049;-26
2022/12/25 13:02:46;;;;;;;18.48;9.15;;;9.00;99.90;;;;;;5036227;28;20052;-26
2022/12/25 13:05:36;;;;;;;17.58;9.15;;;9.00;99.90;;;;;;5053900;28;20132;-26
2022/12/25 13:08:10;;;;;;;12.48;8.10;;;9.00;99.90;;;;;;5036143;28;20098;-26
2022/12/25 13:10:40;;;;;;;14.63;8.77;;;9.00;99.90;;;;;;5053852;28;20049;-26
2022/12/25 13:13:32;;;;;;;15.50;8.48;;;9.00;99.90;;;;;;5053768;28;20601;-26
2022/12/25 13:15:58;;;;;;;16.15;8.35;;;9.00;99.90;;;;;;5035893;28;20052;-26
2022/12/25 13:18:24;;;;;;;21.35;10.55;;;9.00;99.90;;;;;;5054195;28;20076;-26
2022/12/25 13:20:54;;;;;;;17.25;8.38;;;9.10;99.90;;;;;;5053671;28;20048;-26
2022/12/25 13:23:31;;;;;;;17.08;8.07;;;9.00;99.90;;;;;;5053618;28;20045;-26
2022/12/25 13:26:13;;;;;;;23.08;10.40;;;9.10;99.90;;;;;;5053610;28;20048;-26
2022/12/25 13:28:38;;;;;;;18.67;8.60;;;9.10;99.90;;;;;;5054340;28;20047;-26
2022/12/25 13:31:19;;;;;;;12.68;8.48;;;9.10;99.90;;;;;;5053550;28;20388;-26
2022/12/25 13:33:54;;;;;;;19.48;8.80;;;9.10;99.90;;;;;;5053430;28;20127;-26
2022/12/25 13:36:20;;;;;;;15.95;8.55;;;9.10;99.90;;;;;;5053778;28;20474;-26
2022/12/25 13:38:50;;;;;;;15.65;9.10;;;9.10;99.90;;;;;;5053476;28;20080;-26
2022/12/25 13:44:25;;;;;;;16.85;8.63;;;9.10;99.90;;;;;;5053485;28;20084;-26
2022/12/25 13:46:51;;;;;;;;;;;9.10;99.90;;;;;;5053692;28;20060;-26
2022/12/25 13:49:22;;;;;;;20.40;8.98;;;9.00;99.90;;;;;;5036612;28;19921;-26
2022/12/25 13:51:49;;;;;;;16.75;9.35;;;9.00;99.90;;;;;;5036347;28;20489;-26
2022/12/25 13:54:16;;;;;;;17.60;7.95;;;9.00;99.90;;;;;;5053620;28;20052;-26
2022/12/25 13:56:53;;;;;;;21.70;10.13;;;9.00;99.90;;;;;;5018969;28;20041;-26
2022/12/25 13:59:22;;;;;;;18.90;8.98;;;9.00;99.90;;;;;;5053219;28;20045;-26
2022/12/25 14:01:49;;;;;;;17.80;8.60;;;9.00;99.90;;;;;;5053237;28;20053;-26
2022/12/25 14:04:20;;;;;;;17.10;9.88;;;9.00;99.90;;;;;;5053558;28;20113;-26
2022/12/25 14:06:47;;;;;;;18.23;8.50;;;9.00;99.90;;;;;;5053697;28;20052;-26
2022/12/25 14:09:14;;;;;;;16.85;9.35;;;9.00;99.90;;;;;;5053446;28;20133;-26
2022/12/25 14:11:44;;;;;;;18.90;9.57;;;9.00;99.90;;;;;;5019445;28;20419;-27
2022/12/25 14:14:34;;;;;;;20.02;8.98;;;9.00;99.90;;;;;;5053981;28;20048;-26
2022/12/25 14:17:00;;;;;;;17.80;9.13;;;9.00;99.90;;;;;;5053960;28;20356;-26
2022/12/25 14:19:31;;;;;;;18.95;9.20;;;9.00;99.90;;;;;;5019061;28;20045;-26
2022/12/25 14:22:21;;;;;;;17.98;8.73;;;9.00;99.90;;;;;;5053319;28;20053;-26
2022/12/25 14:24:47;;;;;;;17.73;9.35;;;9.00;99.90;;;;;;5007059;28;20057;-26
2022/12/25 14:27:20;;;;;;;18.42;8.57;;;9.00;99.90;;;;;;5055100;28;20059;-26
2022/12/25 14:29:48;;;;;;;15.45;9.88;;;9.00;99.90;;;;;;5056785;28;20501;-26
2022/12/25 14:32:22;;;;;;;14.55;9.13;;;9.00;99.90;;;;;;5022922;28;20067;-26
2022/12/25 14:34:58;;;;;;;19.23;10.82;;;9.00;99.90;;;;;;5023136;28;20088;-26